Terminal Aerodrome Forecast
Issued by NWS Newport/Morehead City, NC

Home | Current Version | Previous Version | Text Only | Print | Product List | Glossary On
Versions: 1 2 3 4 5 6 7 8 9 10 11 12 13 14
000
FTUS42 KMHX 300043 CCA
TAFEWN
TAF COR
KEWN 300043Z 3000/3024 18006KT P6SM BKN060
     FM300200 19005KT P6SM VCTS BKN060CB
      TEMPO 3005/3008 4SM TSRA BKN025CB OVC040
     FM300900 VRB04KT P6SM SCT025 OVC070
     FM301700 32006KT P6SM VCSH BKN080=

USA.gov is the U.S. government's official web portal to all federal, state and local government web resources and services.